sensor_id;sensor_type;location;lat;lon;timestamp;P1;durP1;ratioP1;P2;durP2;ratioP2
19863;SDS011;10094;48.820;9.226;2023-04-25T00:04:43;1.60;;;1.50;;
19863;SDS011;10094;48.820;9.226;2023-04-25T00:11:27;3.78;;;1.85;;
19863;SDS011;10094;48.820;9.226;2023-04-25T00:18:09;1.77;;;1.67;;
19863;SDS011;10094;48.820;9.226;2023-04-25T00:24:52;2.38;;;1.63;;
19863;SDS011;10094;48.820;9.226;2023-04-25T00:31:38;2.03;;;1.60;;
19863;SDS011;10094;48.820;9.226;2023-04-25T00:38:21;2.40;;;1.50;;
19863;SDS011;10094;48.820;9.226;2023-04-25T00:45:05;2.10;;;1.55;;
19863;SDS011;10094;48.820;9.226;2023-04-25T00:51:48;1.55;;;1.30;;
19863;SDS011;10094;48.820;9.226;2023-04-25T00:58:31;1.70;;;1.60;;
19863;SDS011;10094;48.820;9.226;2023-04-25T01:05:14;2.33;;;1.70;;
19863;SDS011;10094;48.820;9.226;2023-04-25T01:11:56;2.78;;;1.55;;
19863;SDS011;10094;48.820;9.226;2023-04-25T01:18:39;2.10;;;1.85;;
19863;SDS011;10094;48.820;9.226;2023-04-25T01:25:23;2.70;;;1.75;;
19863;SDS011;10094;48.820;9.226;2023-04-25T01:32:06;2.70;;;2.00;;
19863;SDS011;10094;48.820;9.226;2023-04-25T01:38:49;2.90;;;2.22;;
19863;SDS011;10094;48.820;9.226;2023-04-25T01:45:32;3.47;;;2.10;;
19863;SDS011;10094;48.820;9.226;2023-04-25T01:52:15;3.35;;;1.80;;
19863;SDS011;10094;48.820;9.226;2023-04-25T01:58:57;2.65;;;1.85;;
19863;SDS011;10094;48.820;9.226;2023-04-25T02:06:06;2.83;;;1.80;;
19863;SDS011;10094;48.820;9.226;2023-04-25T02:12:52;3.47;;;1.70;;
19863;SDS011;10094;48.820;9.226;2023-04-25T02:19:42;4.30;;;1.83;;
19863;SDS011;10094;48.820;9.226;2023-04-25T02:26:25;4.63;;;2.13;;
19863;SDS011;10094;48.820;9.226;2023-04-25T02:33:07;2.45;;;2.00;;
19863;SDS011;10094;48.820;9.226;2023-04-25T02:39:51;2.30;;;2.00;;
19863;SDS011;10094;48.820;9.226;2023-04-25T02:46:33;2.03;;;1.70;;
19863;SDS011;10094;48.820;9.226;2023-04-25T02:53:20;3.38;;;2.10;;
19863;SDS011;10094;48.820;9.226;2023-04-25T03:00:05;3.42;;;2.10;;
19863;SDS011;10094;48.820;9.226;2023-04-25T03:06:49;3.00;;;2.10;;
19863;SDS011;10094;48.820;9.226;2023-04-25T03:13:35;3.58;;;2.25;;
19863;SDS011;10094;48.820;9.226;2023-04-25T03:20:17;2.90;;;2.20;;
19863;SDS011;10094;48.820;9.226;2023-04-25T03:26:59;3.22;;;2.17;;
19863;SDS011;10094;48.820;9.226;2023-04-25T03:33:42;3.45;;;2.50;;
19863;SDS011;10094;48.820;9.226;2023-04-25T03:40:25;2.45;;;2.25;;
19863;SDS011;10094;48.820;9.226;2023-04-25T03:47:24;6.93;;;2.95;;
19863;SDS011;10094;48.820;9.226;2023-04-25T03:54:08;5.55;;;2.67;;
19863;SDS011;10094;48.820;9.226;2023-04-25T04:00:53;4.15;;;2.95;;
19863;SDS011;10094;48.820;9.226;2023-04-25T04:07:36;3.97;;;3.13;;
19863;SDS011;10094;48.820;9.226;2023-04-25T04:14:24;3.55;;;2.60;;
19863;SDS011;10094;48.820;9.226;2023-04-25T04:21:06;5.20;;;3.65;;
19863;SDS011;10094;48.820;9.226;2023-04-25T04:27:52;2.78;;;2.40;;
19863;SDS011;10094;48.820;9.226;2023-04-25T04:34:42;3.97;;;3.00;;
19863;SDS011;10094;48.820;9.226;2023-04-25T04:41:27;7.28;;;3.45;;
19863;SDS011;10094;48.820;9.226;2023-04-25T04:48:43;7.97;;;2.95;;
19863;SDS011;10094;48.820;9.226;2023-04-25T04:55:29;5.30;;;2.67;;
19863;SDS011;10094;48.820;9.226;2023-04-25T05:02:31;4.20;;;2.67;;
19863;SDS011;10094;48.820;9.226;2023-04-25T05:09:35;10.23;;;3.00;;
19863;SDS011;10094;48.820;9.226;2023-04-25T05:16:18;3.92;;;2.90;;
19863;SDS011;10094;48.820;9.226;2023-04-25T05:23:06;7.45;;;3.63;;
19863;SDS011;10094;48.820;9.226;2023-04-25T05:30:08;3.78;;;3.28;;
19863;SDS011;10094;48.820;9.226;2023-04-25T05:37:06;5.45;;;3.35;;
19863;SDS011;10094;48.820;9.226;2023-04-25T05:43:55;8.13;;;4.00;;
19863;SDS011;10094;48.820;9.226;2023-04-25T05:50:57;5.10;;;3.45;;
19863;SDS011;10094;48.820;9.226;2023-04-25T05:57:55;6.28;;;4.22;;
19863;SDS011;10094;48.820;9.226;2023-04-25T06:04:37;4.47;;;3.95;;
19863;SDS011;10094;48.820;9.226;2023-04-25T06:11:20;5.70;;;3.40;;
19863;SDS011;10094;48.820;9.226;2023-04-25T06:18:03;7.90;;;3.95;;
19863;SDS011;10094;48.820;9.226;2023-04-25T06:24:45;5.18;;;3.38;;
19863;SDS011;10094;48.820;9.226;2023-04-25T06:31:28;3.75;;;3.20;;
19863;SDS011;10094;48.820;9.226;2023-04-25T06:38:11;3.53;;;3.00;;
19863;SDS011;10094;48.820;9.226;2023-04-25T06:44:56;4.15;;;3.72;;
19863;SDS011;10094;48.820;9.226;2023-04-25T06:51:38;5.50;;;3.83;;
19863;SDS011;10094;48.820;9.226;2023-04-25T06:58:22;4.10;;;3.53;;
19863;SDS011;10094;48.820;9.226;2023-04-25T07:05:15;3.60;;;3.30;;
19863;SDS011;10094;48.820;9.226;2023-04-25T07:12:00;3.85;;;3.53;;
19863;SDS011;10094;48.820;9.226;2023-04-25T07:18:43;3.85;;;3.55;;
19863;SDS011;10094;48.820;9.226;2023-04-25T07:25:26;5.53;;;4.38;;
19863;SDS011;10094;48.820;9.226;2023-04-25T07:32:09;4.63;;;4.22;;
19863;SDS011;10094;48.820;9.226;2023-04-25T07:38:56;6.10;;;4.60;;
19863;SDS011;10094;48.820;9.226;2023-04-25T07:45:39;6.63;;;5.00;;
19863;SDS011;10094;48.820;9.226;2023-04-25T07:52:22;5.57;;;4.57;;
19863;SDS011;10094;48.820;9.226;2023-04-25T07:59:10;5.57;;;5.07;;
19863;SDS011;10094;48.820;9.226;2023-04-25T08:05:54;5.28;;;4.75;;
19863;SDS011;10094;48.820;9.226;2023-04-25T08:12:39;5.28;;;4.63;;
19863;SDS011;10094;48.820;9.226;2023-04-25T08:19:22;7.57;;;5.63;;
19863;SDS011;10094;48.820;9.226;2023-04-25T08:26:06;7.63;;;5.28;;
19863;SDS011;10094;48.820;9.226;2023-04-25T08:32:51;7.13;;;4.82;;
19863;SDS011;10094;48.820;9.226;2023-04-25T08:40:03;7.00;;;5.93;;
19863;SDS011;10094;48.820;9.226;2023-04-25T08:46:59;6.97;;;5.28;;
19863;SDS011;10094;48.820;9.226;2023-04-25T08:53:46;5.65;;;4.97;;
19863;SDS011;10094;48.820;9.226;2023-04-25T09:00:38;8.55;;;4.75;;
19863;SDS011;10094;48.820;9.226;2023-04-25T09:07:21;5.15;;;4.65;;
19863;SDS011;10094;48.820;9.226;2023-04-25T09:14:11;4.85;;;4.45;;
19863;SDS011;10094;48.820;9.226;2023-04-25T09:21:18;5.85;;;5.25;;
19863;SDS011;10094;48.820;9.226;2023-04-25T09:28:05;7.70;;;5.90;;
19863;SDS011;10094;48.820;9.226;2023-04-25T09:34:49;6.03;;;5.47;;
19863;SDS011;10094;48.820;9.226;2023-04-25T09:41:37;4.25;;;3.17;;
19863;SDS011;10094;48.820;9.226;2023-04-25T09:48:21;5.40;;;4.20;;
19863;SDS011;10094;48.820;9.226;2023-04-25T09:55:07;3.85;;;3.53;;
19863;SDS011;10094;48.820;9.226;2023-04-25T10:01:49;4.63;;;4.15;;
19863;SDS011;10094;48.820;9.226;2023-04-25T10:08:41;4.57;;;3.65;;
19863;SDS011;10094;48.820;9.226;2023-04-25T10:15:26;4.25;;;3.85;;
19863;SDS011;10094;48.820;9.226;2023-04-25T10:22:20;2.92;;;2.63;;
19863;SDS011;10094;48.820;9.226;2023-04-25T10:29:10;4.13;;;3.75;;
19863;SDS011;10094;48.820;9.226;2023-04-25T10:35:53;4.85;;;3.38;;
19863;SDS011;10094;48.820;9.226;2023-04-25T10:42:40;3.90;;;3.47;;
19863;SDS011;10094;48.820;9.226;2023-04-25T10:49:41;5.22;;;4.10;;
19863;SDS011;10094;48.820;9.226;2023-04-25T10:56:30;8.18;;;4.93;;
19863;SDS011;10094;48.820;9.226;2023-04-25T11:03:15;4.18;;;3.47;;
19863;SDS011;10094;48.820;9.226;2023-04-25T11:10:01;6.28;;;3.92;;
19863;SDS011;10094;48.820;9.226;2023-04-25T11:16:45;5.13;;;3.25;;
19863;SDS011;10094;48.820;9.226;2023-04-25T11:23:28;3.53;;;2.75;;
19863;SDS011;10094;48.820;9.226;2023-04-25T11:30:15;3.97;;;2.80;;
19863;SDS011;10094;48.820;9.226;2023-04-25T11:36:58;4.22;;;3.03;;
19863;SDS011;10094;48.820;9.226;2023-04-25T11:43:42;4.13;;;3.10;;
19863;SDS011;10094;48.820;9.226;2023-04-25T11:50:25;4.45;;;3.42;;
19863;SDS011;10094;48.820;9.226;2023-04-25T11:57:10;4.07;;;3.10;;
19863;SDS011;10094;48.820;9.226;2023-04-25T12:03:53;3.55;;;3.20;;
19863;SDS011;10094;48.820;9.226;2023-04-25T12:10:37;3.95;;;3.55;;
19863;SDS011;10094;48.820;9.226;2023-04-25T12:17:23;4.15;;;3.75;;
19863;SDS011;10094;48.820;9.226;2023-04-25T12:24:20;4.63;;;3.92;;
19863;SDS011;10094;48.820;9.226;2023-04-25T12:31:09;6.68;;;4.00;;
19863;SDS011;10094;48.820;9.226;2023-04-25T12:37:51;6.30;;;4.32;;
19863;SDS011;10094;48.820;9.226;2023-04-25T12:44:34;6.15;;;4.90;;
19863;SDS011;10094;48.820;9.226;2023-04-25T12:51:16;6.43;;;4.43;;
19863;SDS011;10094;48.820;9.226;2023-04-25T12:57:58;5.13;;;4.22;;
19863;SDS011;10094;48.820;9.226;2023-04-25T13:04:41;7.00;;;4.78;;
19863;SDS011;10094;48.820;9.226;2023-04-25T13:11:23;5.80;;;4.90;;
19863;SDS011;10094;48.820;9.226;2023-04-25T13:18:06;6.35;;;5.53;;
19863;SDS011;10094;48.820;9.226;2023-04-25T13:24:48;6.30;;;5.70;;
19863;SDS011;10094;48.820;9.226;2023-04-25T13:31:31;9.93;;;5.72;;
19863;SDS011;10094;48.820;9.226;2023-04-25T13:38:13;6.85;;;5.65;;
19863;SDS011;10094;48.820;9.226;2023-04-25T13:44:55;8.32;;;6.82;;
19863;SDS011;10094;48.820;9.226;2023-04-25T13:51:38;8.18;;;6.82;;
19863;SDS011;10094;48.820;9.226;2023-04-25T13:58:20;12.35;;;7.75;;
19863;SDS011;10094;48.820;9.226;2023-04-25T14:05:06;10.70;;;8.05;;
19863;SDS011;10094;48.820;9.226;2023-04-25T14:11:48;9.90;;;7.90;;
19863;SDS011;10094;48.820;9.226;2023-04-25T14:18:31;8.45;;;7.55;;
19863;SDS011;10094;48.820;9.226;2023-04-25T14:25:13;6.20;;;5.60;;
19863;SDS011;10094;48.820;9.226;2023-04-25T14:31:56;7.47;;;5.88;;
19863;SDS011;10094;48.820;9.226;2023-04-25T14:38:39;7.65;;;6.22;;
19863;SDS011;10094;48.820;9.226;2023-04-25T14:45:21;6.85;;;5.10;;
19863;SDS011;10094;48.820;9.226;2023-04-25T14:52:04;7.05;;;5.25;;
19863;SDS011;10094;48.820;9.226;2023-04-25T14:58:46;7.25;;;5.20;;
19863;SDS011;10094;48.820;9.226;2023-04-25T15:05:29;8.90;;;5.70;;
19863;SDS011;10094;48.820;9.226;2023-04-25T15:12:11;8.70;;;6.15;;
19863;SDS011;10094;48.820;9.226;2023-04-25T15:18:54;6.75;;;5.70;;
19863;SDS011;10094;48.820;9.226;2023-04-25T15:25:36;9.00;;;5.80;;
19863;SDS011;10094;48.820;9.226;2023-04-25T15:32:18;5.43;;;4.68;;
19863;SDS011;10094;48.820;9.226;2023-04-25T15:39:02;7.53;;;4.30;;
19863;SDS011;10094;48.820;9.226;2023-04-25T15:45:45;5.15;;;4.20;;
19863;SDS011;10094;48.820;9.226;2023-04-25T15:52:28;6.68;;;5.18;;
19863;SDS011;10094;48.820;9.226;2023-04-25T15:59:11;7.18;;;5.28;;
19863;SDS011;10094;48.820;9.226;2023-04-25T16:05:53;7.30;;;5.85;;
19863;SDS011;10094;48.820;9.226;2023-04-25T16:12:35;10.23;;;6.70;;
19863;SDS011;10094;48.820;9.226;2023-04-25T16:19:21;5.90;;;4.90;;
19863;SDS011;10094;48.820;9.226;2023-04-25T16:26:04;7.03;;;5.63;;
19863;SDS011;10094;48.820;9.226;2023-04-25T16:32:47;7.32;;;5.88;;
19863;SDS011;10094;48.820;9.226;2023-04-25T16:39:29;6.35;;;5.20;;
19863;SDS011;10094;48.820;9.226;2023-04-25T16:46:12;9.68;;;6.70;;
19863;SDS011;10094;48.820;9.226;2023-04-25T16:52:54;6.35;;;5.50;;
19863;SDS011;10094;48.820;9.226;2023-04-25T16:59:37;8.73;;;5.55;;
19863;SDS011;10094;48.820;9.226;2023-04-25T17:06:19;8.60;;;5.50;;
19863;SDS011;10094;48.820;9.226;2023-04-25T17:13:02;6.85;;;5.68;;
19863;SDS011;10094;48.820;9.226;2023-04-25T17:19:44;8.38;;;5.38;;
19863;SDS011;10094;48.820;9.226;2023-04-25T17:26:27;8.60;;;5.82;;
19863;SDS011;10094;48.820;9.226;2023-04-25T17:33:09;9.45;;;6.10;;
19863;SDS011;10094;48.820;9.226;2023-04-25T17:39:51;11.05;;;7.30;;
19863;SDS011;10094;48.820;9.226;2023-04-25T17:46:34;8.98;;;5.57;;
19863;SDS011;10094;48.820;9.226;2023-04-25T17:53:17;8.65;;;5.13;;
19863;SDS011;10094;48.820;9.226;2023-04-25T17:59:59;5.53;;;4.38;;
19863;SDS011;10094;48.820;9.226;2023-04-25T18:06:41;5.22;;;3.47;;
19863;SDS011;10094;48.820;9.226;2023-04-25T18:13:25;3.78;;;3.33;;
19863;SDS011;10094;48.820;9.226;2023-04-25T18:20:11;6.63;;;3.83;;
19863;SDS011;10094;48.820;9.226;2023-04-25T18:26:56;4.25;;;3.78;;
19863;SDS011;10094;48.820;9.226;2023-04-25T18:33:41;9.05;;;4.88;;
19863;SDS011;10094;48.820;9.226;2023-04-25T18:40:23;9.68;;;6.15;;
19863;SDS011;10094;48.820;9.226;2023-04-25T18:47:06;10.50;;;6.10;;
19863;SDS011;10094;48.820;9.226;2023-04-25T18:53:54;8.77;;;6.70;;
19863;SDS011;10094;48.820;9.226;2023-04-25T19:00:37;9.68;;;7.18;;
19863;SDS011;10094;48.820;9.226;2023-04-25T19:07:19;11.43;;;7.22;;
19863;SDS011;10094;48.820;9.226;2023-04-25T19:14:03;9.82;;;7.50;;
19863;SDS011;10094;48.820;9.226;2023-04-25T19:20:45;8.75;;;7.95;;
19863;SDS011;10094;48.820;9.226;2023-04-25T19:27:27;15.20;;;8.13;;
19863;SDS011;10094;48.820;9.226;2023-04-25T19:34:10;13.00;;;8.27;;
19863;SDS011;10094;48.820;9.226;2023-04-25T19:40:53;12.23;;;8.73;;
19863;SDS011;10094;48.820;9.226;2023-04-25T19:47:36;11.98;;;8.75;;
19863;SDS011;10094;48.820;9.226;2023-04-25T19:54:21;10.95;;;8.25;;
19863;SDS011;10094;48.820;9.226;2023-04-25T20:01:04;11.00;;;8.20;;
19863;SDS011;10094;48.820;9.226;2023-04-25T20:07:47;9.63;;;8.02;;
19863;SDS011;10094;48.820;9.226;2023-04-25T20:14:30;11.70;;;8.10;;
19863;SDS011;10094;48.820;9.226;2023-04-25T20:21:14;11.27;;;8.60;;
19863;SDS011;10094;48.820;9.226;2023-04-25T20:27:57;13.20;;;9.07;;
19863;SDS011;10094;48.820;9.226;2023-04-25T20:34:40;11.45;;;9.60;;
19863;SDS011;10094;48.820;9.226;2023-04-25T20:41:22;11.55;;;8.77;;
19863;SDS011;10094;48.820;9.226;2023-04-25T20:48:05;16.00;;;8.85;;
19863;SDS011;10094;48.820;9.226;2023-04-25T20:54:47;13.10;;;9.38;;
19863;SDS011;10094;48.820;9.226;2023-04-25T21:01:31;13.13;;;9.30;;
19863;SDS011;10094;48.820;9.226;2023-04-25T21:08:13;13.75;;;9.57;;
19863;SDS011;10094;48.820;9.226;2023-04-25T21:14:56;12.23;;;9.20;;
19863;SDS011;10094;48.820;9.226;2023-04-25T21:21:38;11.48;;;7.65;;
19863;SDS011;10094;48.820;9.226;2023-04-25T21:28:21;11.65;;;8.00;;
19863;SDS011;10094;48.820;9.226;2023-04-25T21:35:04;12.23;;;7.15;;
19863;SDS011;10094;48.820;9.226;2023-04-25T21:41:47;8.10;;;6.80;;
19863;SDS011;10094;48.820;9.226;2023-04-25T21:48:30;9.07;;;7.30;;
19863;SDS011;10094;48.820;9.226;2023-04-25T21:55:13;12.50;;;7.45;;
19863;SDS011;10094;48.820;9.226;2023-04-25T22:01:55;15.00;;;7.53;;
19863;SDS011;10094;48.820;9.226;2023-04-25T22:08:38;9.00;;;7.20;;
19863;SDS011;10094;48.820;9.226;2023-04-25T22:15:20;13.88;;;8.00;;
19863;SDS011;10094;48.820;9.226;2023-04-25T22:22:04;11.52;;;7.65;;
19863;SDS011;10094;48.820;9.226;2023-04-25T22:28:47;11.23;;;7.97;;
19863;SDS011;10094;48.820;9.226;2023-04-25T22:35:30;11.18;;;7.25;;
19863;SDS011;10094;48.820;9.226;2023-04-25T22:42:12;9.27;;;7.20;;
19863;SDS011;10094;48.820;9.226;2023-04-25T22:48:54;11.88;;;7.70;;
19863;SDS011;10094;48.820;9.226;2023-04-25T22:55:37;10.30;;;8.18;;
19863;SDS011;10094;48.820;9.226;2023-04-25T23:02:21;9.77;;;7.28;;
19863;SDS011;10094;48.820;9.226;2023-04-25T23:09:03;11.73;;;7.68;;
19863;SDS011;10094;48.820;9.226;2023-04-25T23:15:46;11.48;;;8.05;;
19863;SDS011;10094;48.820;9.226;2023-04-25T23:22:29;8.57;;;7.10;;
19863;SDS011;10094;48.820;9.226;2023-04-25T23:29:11;9.23;;;7.05;;
19863;SDS011;10094;48.820;9.226;2023-04-25T23:35:54;12.82;;;7.93;;
19863;SDS011;10094;48.820;9.226;2023-04-25T23:42:36;9.00;;;7.63;;
19863;SDS011;10094;48.820;9.226;2023-04-25T23:49:20;13.90;;;7.43;;
19863;SDS011;10094;48.820;9.226;2023-04-25T23:56:03;11.48;;;7.72;;
